createdAt,value
2022-10-05T00:15:02.090Z,90.61
2022-10-05T00:43:45.312Z,91.01
2022-10-05T01:12:27.705Z,90.61
2022-10-05T01:40:54.542Z,91.24
2022-10-05T02:09:37.042Z,90.68
2022-10-05T02:38:25.631Z,91.2
2022-10-05T03:07:24.030Z,90.87
2022-10-05T03:36:30.277Z,90.38
2022-10-05T04:05:09.984Z,91.61
2022-10-05T04:33:49.562Z,89.91
2022-10-05T05:02:40.326Z,90.07
2022-10-05T05:31:35.014Z,91.94
2022-10-05T06:00:11.447Z,91.07
2022-10-05T06:28:35.987Z,92.3
2022-10-05T06:57:26.047Z,93.53
2022-10-05T07:26:21.407Z,95.92
2022-10-05T07:55:19.347Z,71.47
2022-10-05T08:24:12.891Z,81.14
2022-10-05T08:53:01.193Z,79.7
2022-10-05T09:21:48.163Z,77.14
2022-10-05T09:50:23.680Z,75.77
2022-10-05T10:19:06.089Z,72.37
2022-10-05T10:47:52.298Z,69.03
2022-10-05T11:16:41.661Z,66.96
2022-10-05T11:45:24.747Z,57.4
2022-10-05T12:14:21.160Z,55.26
2022-10-05T12:43:01.195Z,52.56
2022-10-05T13:11:38.918Z,50.22
2022-10-05T13:40:28.882Z,47.36
2022-10-05T14:09:10.468Z,44.75
2022-10-05T14:37:47.012Z,42.41
2022-10-05T15:06:09.630Z,43.28
2022-10-05T15:34:42.753Z,46.88
2022-10-05T16:03:14.645Z,50.05
2022-10-05T16:31:50.097Z,54.17
2022-10-05T17:00:16.514Z,57.92
2022-10-05T17:28:29.397Z,60.63
2022-10-05T17:56:54.323Z,63.67
2022-10-05T18:25:32.251Z,66.97
2022-10-05T18:54:21.270Z,67.01
2022-10-05T19:22:51.799Z,67.93
2022-10-05T19:51:41.668Z,69.5
2022-10-05T20:20:22.439Z,68.87
2022-10-05T20:49:17.456Z,66.63
2022-10-05T21:17:43.072Z,69.65
2022-10-05T21:46:34.009Z,73.21
2022-10-05T22:15:24.674Z,73.31
2022-10-05T22:44:17.467Z,74.83
2022-10-05T23:13:07.513Z,76.14
2022-10-05T23:41:57.716Z,77.58
